TIST/STT METAR and TAF weather

Enter ICAO airport designator
Station Type Date Time Source
TIST METAR 2020/07/04 09:53 UTC NOAA

TIST 040953Z AUTO 09007KT 10SM CLR 27/24 A2996 RMK AO2 SLP145 T02670239


Station Type Date Time Source
TIST Decoded METAR 2020/07/04 09:53 UTC NOAA

Charlotte Amalie St. Thomas, Cyril E. King Airport, Virgin Islands (TIST) 18-20N 064-59W
Jul 04, 2020 - 05:53 AM EDT / 2020.07.04 0953 UTC
Wind: from the E (090 degrees) at 8 MPH (7 KT):0
Visibility: 10 mile(s):0
Sky conditions: clear
Temperature: 80.1 F (26.7 C)
Dew Point: 75.0 F (23.9 C)
Relative Humidity: 84%
Pressure (altimeter): 29.96 in. Hg (1014 hPa)
ob: TIST 040953Z AUTO 09007KT 10SM CLR 27/24 A2996 RMK AO2 SLP145 T02670239
cycle: 10

Station Type Date Time Source
TIST TAF 2020/07/04 06:46 UTC NOAA

TAF TIST 040539Z 0406/0506 08004KT P6SM FEW028
FM041400 13012KT P6SM FEW025 SCT050
FM042000 13011KT P6SM VCSH SCT026
FM042330 08010KT P6SM VCSH FEW025

Example: see airport list